createdAt,value
2023-01-19T00:00:27.023Z,0.28
2023-01-19T00:02:53.689Z,0.24
2023-01-19T00:05:20.946Z,0.21
2023-01-19T00:07:47.433Z,0.19
2023-01-19T00:10:13.959Z,0.22
2023-01-19T00:12:40.553Z,0.33
2023-01-19T00:15:07.863Z,0.20
2023-01-19T00:20:01.038Z,0.22
2023-01-19T00:22:27.604Z,0.19
2023-01-19T00:24:54.130Z,0.26
2023-01-19T00:27:20.709Z,0.24
2023-01-19T00:29:47.282Z,0.36
2023-01-19T00:32:13.830Z,0.32
2023-01-19T00:34:40.343Z,0.42
2023-01-19T00:37:07.465Z,0.52
2023-01-19T00:39:34.225Z,0.37
2023-01-19T00:42:00.901Z,0.38
2023-01-19T00:44:27.396Z,0.39
2023-01-19T00:46:53.923Z,0.44
2023-01-19T00:49:20.448Z,0.48
2023-01-19T00:51:46.954Z,0.50
2023-01-19T00:54:13.490Z,0.52
2023-01-19T00:56:40.120Z,0.47
2023-01-19T00:59:06.670Z,0.49
2023-01-19T01:01:45.406Z,0.47
2023-01-19T01:04:12.931Z,0.56
2023-01-19T01:06:39.497Z,0.51
2023-01-19T01:09:06.069Z,0.48
2023-01-19T01:11:32.681Z,0.47
2023-01-19T01:13:59.375Z,0.60
2023-01-19T01:16:26.548Z,0.65
2023-01-19T01:18:53.118Z,0.53
2023-01-19T01:21:19.660Z,0.61
2023-01-19T01:23:46.117Z,0.62
2023-01-19T01:26:12.688Z,0.73
2023-01-19T01:28:39.181Z,0.75
2023-01-19T01:31:05.741Z,0.67
2023-01-19T01:33:40.718Z,0.74
2023-01-19T01:36:09.501Z,0.67
2023-01-19T01:38:36.030Z,0.70
2023-01-19T01:41:02.638Z,0.74
2023-01-19T01:43:51.968Z,0.69
2023-01-19T01:46:18.786Z,0.60
2023-01-19T01:49:10.458Z,0.61
2023-01-19T01:51:51.178Z,0.39
2023-01-19T01:54:20.685Z,0.32
2023-01-19T01:56:49.866Z,0.33
2023-01-19T01:59:27.458Z,0.27
2023-01-19T02:01:59.919Z,0.29
2023-01-19T02:04:26.857Z,0.30
2023-01-19T02:06:53.519Z,0.25
2023-01-19T02:09:20.483Z,0.27
2023-01-19T02:11:47.485Z,0.40
2023-01-19T02:14:14.250Z,0.32
2023-01-19T02:16:41.040Z,0.32
2023-01-19T02:19:12.572Z,0.35
2023-01-19T02:22:01.935Z,0.54
2023-01-19T02:24:28.978Z,0.44
2023-01-19T02:26:56.834Z,0.54
2023-01-19T02:29:25.952Z,0.51
2023-01-19T02:31:52.657Z,0.54
2023-01-19T02:34:21.094Z,0.59
2023-01-19T02:37:00.496Z,0.48
2023-01-19T02:39:48.474Z,0.53
2023-01-19T02:42:33.835Z,0.62
2023-01-19T02:45:01.632Z,0.57
2023-01-19T02:47:37.756Z,0.61
2023-01-19T02:50:04.779Z,0.51
2023-01-19T02:52:31.383Z,0.57
2023-01-19T02:55:33.163Z,0.58
2023-01-19T02:58:03.424Z,0.56
2023-01-19T03:00:34.973Z,0.54
2023-01-19T03:03:12.749Z,0.56
2023-01-19T03:06:17.912Z,0.60
2023-01-19T03:09:18.234Z,0.62
2023-01-19T03:11:59.155Z,0.65
2023-01-19T03:14:30.266Z,0.62
2023-01-19T03:17:02.652Z,0.62
2023-01-19T03:19:35.638Z,0.68
2023-01-19T03:22:24.440Z,0.64
2023-01-19T03:24:55.258Z,0.71
2023-01-19T03:27:26.881Z,0.64
2023-01-19T03:29:57.379Z,0.69
2023-01-19T03:32:29.249Z,0.72
2023-01-19T03:34:59.222Z,0.68
2023-01-19T03:37:27.338Z,0.74
2023-01-19T03:39:54.081Z,0.77
2023-01-19T03:42:20.837Z,0.81
2023-01-19T03:44:47.751Z,0.82
2023-01-19T03:47:15.156Z,0.72
2023-01-19T03:49:45.288Z,0.82
2023-01-19T03:52:12.149Z,0.80
2023-01-19T03:54:39.167Z,0.81
2023-01-19T03:57:06.780Z,0.88
2023-01-19T03:59:33.465Z,0.95
2023-01-19T04:02:00.250Z,0.87
2023-01-19T04:04:26.753Z,0.92
2023-01-19T04:06:53.324Z,0.92
2023-01-19T04:09:20.261Z,0.93
2023-01-19T04:11:46.815Z,0.96
2023-01-19T04:14:13.427Z,1.01
2023-01-19T04:16:40.145Z,0.99
2023-01-19T04:19:06.723Z,0.98
2023-01-19T04:21:33.271Z,1.06
2023-01-19T04:23:59.790Z,1.03
2023-01-19T04:26:26.653Z,0.97
2023-01-19T04:28:53.176Z,0.85
2023-01-19T04:31:20.953Z,1.03
2023-01-19T04:33:47.673Z,1.08
2023-01-19T04:36:14.207Z,0.94
2023-01-19T04:38:40.808Z,0.96
2023-01-19T04:41:07.349Z,0.92
2023-01-19T04:43:33.909Z,0.99
2023-01-19T04:46:00.481Z,0.84
2023-01-19T04:48:26.941Z,0.91
2023-01-19T04:50:53.455Z,1.01
2023-01-19T04:53:20.148Z,1.02
2023-01-19T04:55:46.727Z,0.98
2023-01-19T04:58:13.468Z,1.22
2023-01-19T05:00:40.067Z,1.09
2023-01-19T05:03:06.655Z,0.95
2023-01-19T05:05:33.235Z,0.96
2023-01-19T05:07:59.977Z,1.04
2023-01-19T05:10:26.576Z,0.99
2023-01-19T05:12:53.083Z,1.08
2023-01-19T05:15:19.692Z,1.05
2023-01-19T05:17:46.249Z,1.03
2023-01-19T05:20:16.095Z,1.21
2023-01-19T05:22:43.458Z,1.07
2023-01-19T05:25:10.010Z,1.16
2023-01-19T05:27:37.439Z,1.26
2023-01-19T05:30:04.572Z,1.16
2023-01-19T05:32:31.235Z,1.18
2023-01-19T05:34:57.767Z,1.21
2023-01-19T05:37:24.493Z,1.20
2023-01-19T05:39:51.189Z,1.10
2023-01-19T05:42:17.708Z,1.13
2023-01-19T05:44:44.565Z,1.13
2023-01-19T05:47:11.317Z,1.20
2023-01-19T05:49:37.925Z,1.19
2023-01-19T05:52:04.717Z,1.21
2023-01-19T05:54:31.316Z,1.31
2023-01-19T05:56:57.888Z,1.28
2023-01-19T05:59:24.486Z,1.36
2023-01-19T06:01:51.883Z,1.36
2023-01-19T06:04:18.764Z,1.39
2023-01-19T06:06:47.685Z,1.33
2023-01-19T06:09:14.513Z,1.33
2023-01-19T06:11:41.055Z,1.33
2023-01-19T06:14:09.775Z,1.28
2023-01-19T06:16:36.980Z,1.40
2023-01-19T06:19:03.874Z,1.31
2023-01-19T06:21:30.470Z,1.30
2023-01-19T06:23:57.083Z,1.33
2023-01-19T06:26:23.666Z,1.39
2023-01-19T06:28:51.404Z,1.42
2023-01-19T06:31:18.368Z,1.40
2023-01-19T06:33:44.903Z,1.43
2023-01-19T06:36:11.588Z,1.39
2023-01-19T06:38:38.164Z,1.38
2023-01-19T06:41:04.898Z,1.30
2023-01-19T06:43:31.751Z,1.35
2023-01-19T06:45:58.714Z,1.36
2023-01-19T06:48:25.269Z,1.40
2023-01-19T06:50:51.853Z,1.38
2023-01-19T06:53:18.426Z,1.46
2023-01-19T06:55:45.317Z,1.33
2023-01-19T06:58:12.415Z,1.53
2023-01-19T07:00:38.928Z,1.38
2023-01-19T07:03:08.831Z,1.41
2023-01-19T07:05:36.120Z,1.39
2023-01-19T07:08:03.484Z,1.40
2023-01-19T07:11:26.650Z,1.40
2023-01-19T07:13:16.657Z,1.37
2023-01-19T07:15:43.860Z,1.43
2023-01-19T07:18:10.999Z,1.34
2023-01-19T07:20:37.960Z,1.46
2023-01-19T07:23:04.770Z,1.40
2023-01-19T07:25:31.333Z,1.38
2023-01-19T07:28:00.809Z,1.45
2023-01-19T07:30:27.609Z,1.40
2023-01-19T07:32:58.800Z,1.49
2023-01-19T07:35:25.660Z,1.48
2023-01-19T07:37:52.160Z,1.47
2023-01-19T07:40:18.808Z,1.39
2023-01-19T07:42:49.724Z,1.41
2023-01-19T07:45:17.453Z,1.29
2023-01-19T07:47:45.318Z,1.40
2023-01-19T07:50:13.024Z,1.40
2023-01-19T07:52:39.603Z,1.35
2023-01-19T07:55:06.625Z,1.30
2023-01-19T07:57:33.237Z,1.34
2023-01-19T07:59:59.959Z,1.24
2023-01-19T08:02:26.484Z,1.34
2023-01-19T08:04:53.221Z,1.30
2023-01-19T08:07:19.766Z,1.39
2023-01-19T08:09:46.282Z,1.29
2023-01-19T08:12:12.887Z,1.27
2023-01-19T08:14:39.388Z,1.36
2023-01-19T08:17:06.009Z,1.53
2023-01-19T08:19:32.694Z,1.53
2023-01-19T08:21:59.217Z,1.38
2023-01-19T08:24:25.649Z,1.36
2023-01-19T08:26:58.856Z,1.41
2023-01-19T08:29:25.475Z,1.51
2023-01-19T08:31:52.115Z,1.35
2023-01-19T08:34:18.669Z,1.29
2023-01-19T08:36:45.324Z,1.26
2023-01-19T08:39:11.910Z,1.30
2023-01-19T08:41:38.468Z,1.17
2023-01-19T08:44:05.164Z,1.26
2023-01-19T08:46:31.719Z,1.21
2023-01-19T08:48:58.312Z,1.16
2023-01-19T08:51:24.836Z,1.27
2023-01-19T08:53:51.311Z,1.19
2023-01-19T08:56:20.451Z,1.15
2023-01-19T08:58:53.649Z,1.07
2023-01-19T09:01:30.050Z,1.16
2023-01-19T09:03:56.832Z,1.21
2023-01-19T09:06:23.484Z,1.23
2023-01-19T09:08:50.085Z,1.04
2023-01-19T09:11:16.803Z,1.25
2023-01-19T09:13:43.755Z,1.14
2023-01-19T09:16:10.583Z,1.25
2023-01-19T09:18:37.173Z,1.23
2023-01-19T09:21:04.201Z,1.22
2023-01-19T09:23:30.858Z,1.29
2023-01-19T09:25:59.909Z,1.29
2023-01-19T09:28:27.371Z,1.31
2023-01-19T09:30:54.227Z,1.28
2023-01-19T09:33:21.138Z,1.32
2023-01-19T09:35:49.003Z,1.45
2023-01-19T09:38:16.556Z,1.41
2023-01-19T09:40:44.477Z,1.41
2023-01-19T09:43:44.546Z,1.42
2023-01-19T09:46:20.973Z,1.49
2023-01-19T09:48:55.742Z,1.56
2023-01-19T09:51:23.996Z,1.34
2023-01-19T09:54:08.975Z,1.27
2023-01-19T09:56:35.801Z,1.27
2023-01-19T09:59:31.476Z,1.33
2023-01-19T10:02:10.233Z,1.33
2023-01-19T10:04:41.838Z,1.26
2023-01-19T10:07:20.217Z,1.19
2023-01-19T10:09:53.581Z,1.26
2023-01-19T10:12:55.206Z,1.22
2023-01-19T10:15:43.288Z,1.20
2023-01-19T10:18:12.806Z,1.15
2023-01-19T10:20:44.736Z,1.34
2023-01-19T10:23:47.634Z,1.15
2023-01-19T10:26:17.068Z,1.20
2023-01-19T10:28:46.831Z,1.17
2023-01-19T10:31:14.282Z,1.07
2023-01-19T10:33:41.107Z,1.12
2023-01-19T10:36:20.300Z,1.20
2023-01-19T10:38:47.771Z,1.23
2023-01-19T10:41:26.129Z,1.41
2023-01-19T10:44:02.335Z,1.18
2023-01-19T10:46:41.943Z,1.19
2023-01-19T10:49:26.185Z,1.29
2023-01-19T10:51:53.832Z,1.28
2023-01-19T10:54:22.028Z,1.28
2023-01-19T10:56:56.641Z,1.15
2023-01-19T10:59:36.954Z,1.17
2023-01-19T11:02:22.908Z,1.27
2023-01-19T11:04:51.097Z,1.09
2023-01-19T11:07:31.403Z,1.06
2023-01-19T11:10:13.184Z,1.02
2023-01-19T11:12:45.938Z,1.15
2023-01-19T11:15:22.554Z,1.20
2023-01-19T11:17:50.317Z,1.19
2023-01-19T11:20:40.215Z,1.07
2023-01-19T11:23:28.732Z,1.15
2023-01-19T11:25:58.997Z,1.27
2023-01-19T11:28:28.125Z,1.25
2023-01-19T11:31:00.168Z,1.20
2023-01-19T11:33:33.482Z,1.14
2023-01-19T11:36:05.946Z,1.14
2023-01-19T11:38:40.014Z,1.24
2023-01-19T11:41:16.981Z,1.26
2023-01-19T11:43:49.493Z,1.18
2023-01-19T11:46:17.643Z,1.19
2023-01-19T11:48:52.783Z,1.16
2023-01-19T11:51:23.058Z,1.23
2023-01-19T11:53:52.488Z,1.18
2023-01-19T11:56:23.492Z,1.16
2023-01-19T11:58:50.173Z,1.21
2023-01-19T12:01:24.596Z,1.21
2023-01-19T12:04:20.202Z,1.22
2023-01-19T12:06:53.286Z,1.32
2023-01-19T12:09:25.061Z,1.23
2023-01-19T12:11:54.492Z,1.32
2023-01-19T12:14:31.581Z,1.24
2023-01-19T12:17:03.066Z,1.33
2023-01-19T12:19:55.237Z,1.32
2023-01-19T12:22:23.043Z,1.24
2023-01-19T12:25:20.747Z,1.23
2023-01-19T12:27:49.580Z,1.27
2023-01-19T12:30:20.257Z,1.25
2023-01-19T12:32:47.243Z,1.26
2023-01-19T12:35:51.380Z,1.16
2023-01-19T12:38:54.656Z,1.18
2023-01-19T12:41:33.164Z,1.18
2023-01-19T12:44:12.002Z,1.21
2023-01-19T12:46:41.491Z,1.26
2023-01-19T12:49:42.055Z,1.16
2023-01-19T12:52:14.432Z,1.19
2023-01-19T12:54:49.570Z,1.26
2023-01-19T12:57:49.163Z,1.24
2023-01-19T13:00:21.715Z,1.08
2023-01-19T13:02:56.428Z,1.04
2023-01-19T13:05:32.486Z,0.99
2023-01-19T13:08:03.395Z,0.84
2023-01-19T13:11:00.739Z,0.86
2023-01-19T13:13:31.715Z,0.81
2023-01-19T13:16:27.774Z,0.91
2023-01-19T13:19:06.665Z,0.96
2023-01-19T13:21:44.418Z,0.93
2023-01-19T13:24:19.613Z,0.88
2023-01-19T13:26:48.870Z,0.84
2023-01-19T13:29:25.045Z,0.83
2023-01-19T13:31:52.258Z,0.87
2023-01-19T13:34:22.906Z,0.95
2023-01-19T13:36:56.027Z,0.98
2023-01-19T13:39:37.659Z,0.93
2023-01-19T13:42:08.225Z,0.92
2023-01-19T13:44:49.364Z,0.89
2023-01-19T13:47:22.207Z,0.87
2023-01-19T13:49:55.590Z,0.93
2023-01-19T13:52:24.833Z,0.93
2023-01-19T13:54:56.328Z,1.00
2023-01-19T13:57:24.756Z,0.91
2023-01-19T14:00:07.351Z,1.04
2023-01-19T14:02:34.335Z,1.03
2023-01-19T14:05:21.065Z,0.95
2023-01-19T14:07:48.174Z,1.03
2023-01-19T14:10:16.268Z,1.02
2023-01-19T14:12:58.501Z,1.04
2023-01-19T14:15:26.527Z,1.08
2023-01-19T14:18:09.103Z,1.09
2023-01-19T14:20:36.046Z,1.13
2023-01-19T14:23:03.304Z,1.16
2023-01-19T14:25:35.448Z,1.07
2023-01-19T14:28:26.781Z,1.13
2023-01-19T14:30:54.804Z,1.19
2023-01-19T14:33:44.189Z,1.07
2023-01-19T14:36:14.656Z,1.14
2023-01-19T14:38:46.805Z,1.14
2023-01-19T14:41:36.954Z,1.07
2023-01-19T14:44:09.018Z,1.18
2023-01-19T14:46:36.280Z,1.22
2023-01-19T14:49:05.912Z,1.14
2023-01-19T14:51:32.928Z,1.23
2023-01-19T14:54:01.911Z,1.12
2023-01-19T14:56:30.922Z,1.16
2023-01-19T14:58:59.444Z,1.16
2023-01-19T15:01:27.411Z,1.14
2023-01-19T15:03:55.517Z,1.22
2023-01-19T15:06:23.340Z,1.38
2023-01-19T15:08:50.564Z,1.37
2023-01-19T15:11:23.096Z,1.30
2023-01-19T15:16:43.120Z,1.27
2023-01-19T15:19:15.210Z,1.22
2023-01-19T15:21:41.885Z,1.25
2023-01-19T15:24:10.260Z,1.23
2023-01-19T15:26:39.498Z,1.37
2023-01-19T15:29:27.002Z,1.29
2023-01-19T15:31:55.877Z,1.23
2023-01-19T15:34:22.389Z,1.15
2023-01-19T15:36:48.937Z,1.23
2023-01-19T15:39:15.418Z,1.28
2023-01-19T15:41:41.936Z,1.19
2023-01-19T15:44:10.769Z,1.26
2023-01-19T15:46:37.563Z,1.28
2023-01-19T15:49:04.265Z,1.32
2023-01-19T15:51:30.805Z,1.23
2023-01-19T15:53:57.449Z,1.32
2023-01-19T15:56:29.082Z,1.31
2023-01-19T15:58:58.424Z,1.36
2023-01-19T16:01:28.019Z,1.32
2023-01-19T16:03:54.624Z,1.31
2023-01-19T16:06:21.173Z,1.32
2023-01-19T16:08:47.740Z,1.35
2023-01-19T16:11:15.532Z,1.32
2023-01-19T16:13:45.268Z,1.36
2023-01-19T16:16:18.209Z,1.41
2023-01-19T16:18:45.101Z,1.34
2023-01-19T16:21:12.551Z,1.39
2023-01-19T16:23:39.371Z,1.31
2023-01-19T16:26:08.463Z,1.38
2023-01-19T16:28:36.487Z,1.35
2023-01-19T16:31:04.100Z,1.30
2023-01-19T16:33:30.619Z,1.35
2023-01-19T16:35:57.166Z,1.31
2023-01-19T16:38:23.957Z,1.43
2023-01-19T16:40:50.539Z,1.41
2023-01-19T16:43:17.137Z,1.40
2023-01-19T16:45:58.572Z,1.39
2023-01-19T16:48:26.980Z,1.32
2023-01-19T16:51:04.856Z,1.31
2023-01-19T16:53:33.130Z,1.35
2023-01-19T16:55:59.711Z,1.27
2023-01-19T16:58:26.210Z,1.36
2023-01-19T17:00:53.025Z,1.39
2023-01-19T17:03:19.624Z,1.39
2023-01-19T17:05:50.528Z,1.38
2023-01-19T17:08:20.589Z,1.39
2023-01-19T17:10:47.873Z,1.44
2023-01-19T17:13:15.010Z,1.48
2023-01-19T17:15:42.775Z,1.42
2023-01-19T17:18:09.493Z,1.60
2023-01-19T17:20:36.079Z,1.55
2023-01-19T17:23:02.675Z,1.44
2023-01-19T17:25:29.263Z,1.47
2023-01-19T17:27:55.861Z,1.52
2023-01-19T17:30:22.582Z,1.67
2023-01-19T17:32:49.248Z,1.58
2023-01-19T17:35:15.930Z,1.47
2023-01-19T17:37:42.555Z,1.40
2023-01-19T17:40:09.980Z,1.40
2023-01-19T17:42:41.147Z,1.51
2023-01-19T17:45:09.038Z,1.61
2023-01-19T17:47:35.560Z,1.59
2023-01-19T17:50:02.119Z,1.60
2023-01-19T17:52:28.837Z,1.74
2023-01-19T17:54:55.415Z,1.60
2023-01-19T17:57:21.906Z,1.63
2023-01-19T17:59:48.448Z,1.76
2023-01-19T18:02:15.265Z,1.69
2023-01-19T18:04:42.051Z,1.67
2023-01-19T18:07:08.688Z,1.82
2023-01-19T18:09:35.215Z,1.84
2023-01-19T18:12:01.726Z,1.75
2023-01-19T18:14:29.561Z,1.73
2023-01-19T18:16:56.415Z,1.78
2023-01-19T18:19:23.004Z,1.79
2023-01-19T18:21:49.636Z,1.82
2023-01-19T18:24:16.372Z,1.73
2023-01-19T18:26:42.885Z,1.75
2023-01-19T18:29:09.603Z,1.74
2023-01-19T18:31:36.250Z,1.80
2023-01-19T18:34:03.031Z,1.82
2023-01-19T18:36:29.682Z,1.87
2023-01-19T18:38:56.357Z,1.76
2023-01-19T18:41:22.937Z,1.77
2023-01-19T18:43:50.236Z,1.71
2023-01-19T18:46:17.238Z,1.79
2023-01-19T18:48:43.869Z,1.75
2023-01-19T18:51:14.897Z,1.78
2023-01-19T18:53:41.741Z,1.74
2023-01-19T18:56:11.884Z,1.82
2023-01-19T18:58:39.548Z,1.79
2023-01-19T19:01:24.042Z,1.79
2023-01-19T19:03:51.524Z,1.86
2023-01-19T19:06:18.677Z,1.79
2023-01-19T19:08:45.137Z,1.84
2023-01-19T19:11:14.081Z,1.84
2023-01-19T19:13:41.049Z,1.84
2023-01-19T19:16:09.144Z,1.83
2023-01-19T19:18:37.261Z,1.87
2023-01-19T19:21:08.805Z,1.82
2023-01-19T19:23:35.934Z,1.78
2023-01-19T19:26:10.410Z,1.90
2023-01-19T19:28:39.443Z,1.91
2023-01-19T19:31:11.824Z,1.85
2023-01-19T19:33:39.635Z,1.85
2023-01-19T19:36:07.544Z,1.90
2023-01-19T19:38:35.700Z,1.93
2023-01-19T19:41:07.052Z,1.85
2023-01-19T19:43:34.544Z,1.93
2023-01-19T19:46:10.316Z,1.77
2023-01-19T19:48:39.301Z,1.75
2023-01-19T19:51:17.049Z,1.72
2023-01-19T19:53:44.943Z,1.70
2023-01-19T19:56:12.587Z,1.76
2023-01-19T19:58:40.233Z,1.84
2023-01-19T20:01:15.914Z,1.87
2023-01-19T20:03:42.867Z,1.86
2023-01-19T20:06:12.061Z,1.90
2023-01-19T20:08:38.807Z,1.93
2023-01-19T20:11:05.356Z,1.90
2023-01-19T20:13:33.644Z,1.93
2023-01-19T20:16:01.863Z,1.89
2023-01-19T20:18:29.055Z,1.90
2023-01-19T20:20:55.773Z,1.89
2023-01-19T20:23:22.435Z,1.94
2023-01-19T20:25:48.988Z,1.94
2023-01-19T20:28:15.507Z,1.91
2023-01-19T20:30:42.057Z,1.91
2023-01-19T20:33:08.621Z,1.92
2023-01-19T20:35:35.159Z,2.03
2023-01-19T20:38:01.806Z,1.98
2023-01-19T20:40:28.331Z,1.92
2023-01-19T20:42:54.899Z,1.91
2023-01-19T20:45:21.499Z,2.04
2023-01-19T20:47:48.025Z,1.98
2023-01-19T20:50:14.607Z,1.95
2023-01-19T20:52:41.280Z,1.98
2023-01-19T20:55:08.172Z,1.99
2023-01-19T20:57:34.751Z,1.99
2023-01-19T21:00:01.337Z,2.04
2023-01-19T21:02:28.639Z,1.99
2023-01-19T21:04:55.277Z,2.05
2023-01-19T21:07:21.919Z,2.10
2023-01-19T21:09:48.448Z,2.14
2023-01-19T21:12:15.162Z,2.21
2023-01-19T21:14:41.819Z,2.21
2023-01-19T21:17:08.305Z,2.20
2023-01-19T21:19:34.805Z,2.25
2023-01-19T21:22:01.291Z,2.19
2023-01-19T21:24:27.903Z,2.17
2023-01-19T21:26:54.450Z,2.32
2023-01-19T21:29:21.076Z,2.37
2023-01-19T21:31:47.716Z,2.29
2023-01-19T21:34:14.266Z,2.22
2023-01-19T21:36:40.914Z,2.21
2023-01-19T21:39:07.424Z,2.25
2023-01-19T21:41:34.285Z,2.10
2023-01-19T21:44:01.543Z,2.02
2023-01-19T21:46:28.489Z,1.86
2023-01-19T21:48:59.797Z,1.87
2023-01-19T21:51:27.740Z,1.79
2023-01-19T21:53:54.474Z,1.68
2023-01-19T21:56:21.000Z,1.67
2023-01-19T21:58:47.528Z,1.67
2023-01-19T22:01:14.489Z,1.72
2023-01-19T22:03:42.006Z,1.63
2023-01-19T22:06:13.904Z,1.67
2023-01-19T22:08:41.227Z,1.68
2023-01-19T22:11:10.735Z,1.62
2023-01-19T22:13:38.975Z,1.63
2023-01-19T22:16:08.788Z,1.67
2023-01-19T22:18:36.128Z,1.65
2023-01-19T22:21:09.430Z,1.72
2023-01-19T22:23:36.422Z,1.69
2023-01-19T22:26:03.805Z,1.81
2023-01-19T22:28:30.805Z,1.80
2023-01-19T22:31:08.726Z,1.80
2023-01-19T22:33:35.934Z,1.85
2023-01-19T22:36:22.364Z,1.75
2023-01-19T22:38:59.874Z,1.81
2023-01-19T22:41:31.723Z,1.82
2023-01-19T22:44:02.206Z,1.83
2023-01-19T22:46:31.151Z,1.89
2023-01-19T22:48:58.297Z,1.93
2023-01-19T22:51:27.121Z,1.88
2023-01-19T22:53:53.673Z,1.92
2023-01-19T22:56:25.402Z,1.80
2023-01-19T22:58:52.987Z,1.85
2023-01-19T23:01:22.778Z,1.82
2023-01-19T23:03:50.078Z,1.84
2023-01-19T23:06:21.885Z,1.76
2023-01-19T23:08:48.868Z,1.85
2023-01-19T23:11:21.670Z,1.80
2023-01-19T23:13:49.375Z,1.84
2023-01-19T23:16:16.377Z,1.85
2023-01-19T23:18:43.874Z,1.90
2023-01-19T23:21:13.740Z,1.87
2023-01-19T23:23:41.017Z,1.88
2023-01-19T23:26:10.550Z,1.90
2023-01-19T23:28:37.184Z,1.94
2023-01-19T23:31:28.140Z,2.09
2023-01-19T23:33:57.499Z,2.03
2023-01-19T23:36:27.615Z,2.04
2023-01-19T23:38:59.412Z,2.06
2023-01-19T23:41:26.914Z,2.14
2023-01-19T23:43:53.441Z,2.06
2023-01-19T23:46:21.250Z,2.20
2023-01-19T23:48:47.889Z,2.01
2023-01-19T23:51:21.465Z,1.97
2023-01-19T23:53:48.467Z,2.08
2023-01-19T23:56:29.890Z,2.12
2023-01-19T23:58:59.002Z,2.05
